^^
Saratoga-Weather Station Historical Data
Daily Summary for April 14, 2020 Units:  English    Metric   Both
Daily Weekly Monthly Yearly Custom
  High: Low: Average:
Temperature: 49.8 °F 42.3 °F 45.7 °F
Dew Point: 44.1 °F 40.1 °F 42.1 °F
Humidity: 94% 77% 87%
Wind Speed: 14.1mph 0mph 3mph
Wind Gust: 17mph - -
Wind- - West
Pressure: 30.3 in 29.8 in -
Precipitation: 0.01 in    
Historical Graphs
 
 
Tabular Data for April 14, 2020
Time Temperature Dew Point Pressure Wind Wind Speed Wind Gust Humidity Rainfall Rate (Hourly) solar
00:03 45 °F 41.5 °F 29.8 in West 13 mph 13 mph 88% 0 in 0 W/m2
00:08 45 °F 41.9 °F 29.8 in North 4.9 mph 16 mph 89% 0 in 0 W/m2
00:13 45 °F 41.9 °F 29.8 in WSW 4.9 mph 12 mph 89% 0 in 0 W/m2
00:18 45 °F 41.9 °F 29.8 in NW 10.1 mph 14 mph 89% 0 in 0 W/m2
00:23 45 °F 41.9 °F 29.8 in West 4 mph 11 mph 89% 0 in 0 W/m2
00:28 45 °F 41.9 °F 29.8 in NNW 4 mph 14 mph 89% 0 in 0 W/m2
00:33 45 °F 41.9 °F 29.8 in West 2.9 mph 14 mph 89% 0 in 0 W/m2
00:38 45 °F 41.9 °F 29.8 in WNW 6.9 mph 14 mph 89% 0 in 0 W/m2
00:43 44.8 °F 41.7 °F 29.8 in WNW 8.1 mph 14 mph 89% 0 in 0 W/m2
00:48 45 °F 41.9 °F 29.8 in West 8.1 mph 11 mph 89% 0 in 0 W/m2
00:53 45 °F 41.9 °F 29.8 in West 6 mph 10 mph 89% 0 in 0 W/m2
00:58 44.8 °F 41.7 °F 29.8 in West 8.9 mph 12 mph 89% 0 in 0 W/m2
01:03 44.8 °F 41.7 °F 29.8 in West 8.1 mph 13 mph 89% 0 in 0 W/m2
01:08 44.8 °F 41.4 °F 29.8 in WSW 6 mph 11 mph 88% 0 in 0 W/m2
01:13 44.8 °F 41.4 °F 29.8 in West 6.9 mph 10 mph 88% 0 in 0 W/m2
01:18 44.6 °F 41.2 °F 29.8 in West 8.1 mph 11 mph 88% 0 in 0 W/m2
01:23 44.4 °F 41.4 °F 29.9 in NW 10.1 mph 16 mph 89% 0 in 0 W/m2
01:28 44.4 °F 41.4 °F 29.9 in WNW 4 mph 11 mph 89% 0 in 0 W/m2
01:33 44.4 °F 41.7 °F 29.9 in SW 8.1 mph 17 mph 90% 0 in 0 W/m2
01:38 44.4 °F 41.7 °F 29.9 in West 4 mph 14 mph 90% 0 in 0 W/m2
01:43 44.4 °F 41.7 °F 29.9 in West 6.9 mph 9 mph 90% 0 in 0 W/m2
01:48 44.4 °F 41.7 °F 29.9 in WNW 6.9 mph 11 mph 90% 0 in 0 W/m2
01:53 44.4 °F 41.7 °F 29.9 in WSW 8.1 mph 13 mph 90% 0 in 0 W/m2
01:59 44.6 °F 41.9 °F 29.9 in WSW 10.1 mph 12 mph 90% 0 in 0 W/m2
02:04 44.8 °F 42.1 °F 29.9 in West 10.1 mph 16 mph 90% 0 in 0 W/m2
02:09 44.8 °F 42.1 °F 29.9 in West 4 mph 10 mph 90% 0 in 0 W/m2
02:14 44.8 °F 42.1 °F 29.9 in West 6.9 mph 12 mph 90% 0 in 0 W/m2
02:19 44.6 °F 41.9 °F 29.9 in NW 4 mph 13 mph 90% 0 in 0 W/m2
02:24 44.8 °F 42.1 °F 29.9 in West 6 mph 11 mph 90% 0 in 0 W/m2
02:29 44.8 °F 42.1 °F 29.9 in WNW 4.9 mph 13 mph 90% 0 in 0 W/m2
02:34 44.6 °F 41.9 °F 29.9 in NW 8.1 mph 8 mph 90% 0 in 0 W/m2
02:39 44.6 °F 41.9 °F 29.9 in SW 4 mph 12 mph 90% 0 in 0 W/m2
02:44 44.6 °F 41.9 °F 29.9 in WSW 4 mph 8 mph 90% 0 in 0 W/m2
02:49 44.6 °F 41.9 °F 29.9 in West 6.9 mph 8 mph 90% 0 in 0 W/m2
02:54 44.6 °F 41.9 °F 29.9 in NW 6.9 mph 10 mph 90% 0 in 0 W/m2
02:59 44.6 °F 41.9 °F 29.9 in West 10.1 mph 12 mph 90% 0 in 0 W/m2
03:04 44.6 °F 41.9 °F 29.9 in NW 8.1 mph 9 mph 90% 0 in 0 W/m2
03:09 44.4 °F 41.7 °F 29.9 in WSW 2 mph 6 mph 90% 0 in 0 W/m2
03:14 44.4 °F 41.7 °F 29.9 in West 6.9 mph 7 mph 90% 0 in 0 W/m2
03:19 44.4 °F 41.7 °F 29.9 in West 6.9 mph 9 mph 90% 0 in 0 W/m2
03:24 44.4 °F 41.7 °F 29.9 in West 11 mph 11 mph 90% 0 in 0 W/m2
03:29 44.4 °F 41.7 °F 29.9 in West 4 mph 7 mph 90% 0 in 0 W/m2
03:34 44.4 °F 41.7 °F 29.9 in WSW 8.1 mph 11 mph 90% 0 in 0 W/m2
03:39 44.4 °F 41.7 °F 29.9 in West 6.9 mph 8 mph 90% 0 in 0 W/m2
03:44 44.4 °F 41.7 °F 29.9 in West 8.9 mph 9 mph 90% 0 in 0 W/m2
03:49 44.2 °F 41.5 °F 29.9 in West 2.9 mph 10 mph 90% 0 in 0 W/m2
03:54 44.2 °F 41.5 °F 29.9 in WSW 2 mph 11 mph 90% 0 in 0 W/m2
03:59 44.1 °F 41.4 °F 29.9 in West 6.9 mph 9 mph 90% 0 in 0 W/m2
04:04 44.1 °F 41.4 °F 29.9 in WSW 8.9 mph 12 mph 90% 0 in 0 W/m2
04:09 44.1 °F 41.4 °F 29.9 in West 8.9 mph 9 mph 90% 0 in 0 W/m2
04:14 44.2 °F 41.5 °F 29.9 in West 6.9 mph 12 mph 90% 0 in 0 W/m2
04:19 44.2 °F 41.5 °F 30 in NNW 2.9 mph 9 mph 90% 0 in 0 W/m2
04:24 44.2 °F 41.5 °F 30 in NW 4 mph 7 mph 90% 0 in 0 W/m2
04:29 44.2 °F 41.5 °F 30 in South 6 mph 9 mph 90% 0 in 0 W/m2
04:34 44.1 °F 41.4 °F 30 in West 4 mph 7 mph 90% 0 in 0 W/m2
04:39 44.1 °F 41.4 °F 30 in WNW 4.9 mph 7 mph 90% 0 in 0 W/m2
04:44 44.1 °F 41.4 °F 30 in West 2.9 mph 8 mph 90% 0 in 0 W/m2
04:49 44.1 °F 41.5 °F 30 in West 6 mph 12 mph 91% 0 in 0 W/m2
04:54 44.1 °F 41.4 °F 30 in NW 2.9 mph 6 mph 90% 0 in 0 W/m2
04:59 44.1 °F 41.5 °F 30 in WNW 2.9 mph 12 mph 91% 0 in 0 W/m2
05:04 44.1 °F 41.5 °F 30 in WSW 6.9 mph 7 mph 91% 0 in 0 W/m2
05:09 44.1 °F 41.5 °F 30 in WSW 4 mph 9 mph 91% 0 in 0 W/m2
05:14 43.9 °F 41.4 °F 30 in SSW 4 mph 8 mph 91% 0 in 0 W/m2
05:19 43.9 °F 41.4 °F 30 in West 6.9 mph 9 mph 91% 0 in 0 W/m2
05:24 43.9 °F 41.4 °F 30 in WSW 2.9 mph 5 mph 91% 0 in 0 W/m2
05:29 43.9 °F 41.4 °F 30 in SW 4 mph 5 mph 91% 0.01 in 0 W/m2
05:34 43.9 °F 41.4 °F 30 in WNW 4 mph 7 mph 91% 0.01 in 0 W/m2
05:39 43.9 °F 41.4 °F 30 in WSW 14.1 mph 14 mph 91% 0.01 in 0 W/m2
05:44 43.9 °F 41.4 °F 30 in West 6.9 mph 9 mph 91% 0.01 in 0 W/m2
05:49 43.9 °F 41.4 °F 30 in WNW 11 mph 12 mph 91% 0.01 in 0 W/m2
05:54 44.1 °F 41.5 °F 30 in WSW 4.9 mph 11 mph 91% 0.01 in 0 W/m2
05:59 43.9 °F 41.4 °F 30 in WSW 8.1 mph 8 mph 91% 0.01 in 0 W/m2
06:04 43.9 °F 41.4 °F 30 in NNW 4.9 mph 8 mph 91% 0.01 in 0 W/m2
06:09 43.7 °F 41 °F 30 in WSW 6.9 mph 11 mph 90% 0.01 in 0 W/m2
06:15 43.9 °F 41.2 °F 30 in West 6.9 mph 8 mph 90% 0.01 in 0 W/m2
06:20 43.9 °F 41.2 °F 30 in West 8.9 mph 12 mph 90% 0.01 in 0 W/m2
06:25 43.9 °F 41.2 °F 30 in West 6.9 mph 9 mph 90% 0.01 in 0 W/m2
06:30 43.9 °F 41.2 °F 30 in WSW 4 mph 11 mph 90% 0 in 0 W/m2
06:35 43.7 °F 41 °F 30 in West 2 mph 7 mph 90% 0 in 0 W/m2
06:40 43.5 °F 40.8 °F 30 in West 2.9 mph 10 mph 90% 0 in 0 W/m2
06:45 43.5 °F 40.8 °F 30 in WNW 4.9 mph 9 mph 90% 0 in 0 W/m2
06:50 43.5 °F 40.8 °F 30 in West 0.9 mph 3 mph 90% 0 in 0 W/m2
06:55 43.7 °F 41 °F 30 in WSW 2.9 mph 5 mph 90% 0 in 0 W/m2
07:00 43.5 °F 40.8 °F 30 in SSW 4 mph 6 mph 90% 0 in 0 W/m2
07:05 43.5 °F 40.8 °F 30 in West 2.9 mph 8 mph 90% 0 in 0 W/m2
07:10 43.5 °F 40.8 °F 30.1 in WNW 2.9 mph 7 mph 90% 0 in 0 W/m2
07:15 43.5 °F 40.8 °F 30.1 in WSW 4 mph 10 mph 90% 0 in 0 W/m2
07:20 43.5 °F 40.8 °F 30.1 in WNW 2.9 mph 5 mph 90% 0 in 0 W/m2
07:25 43.3 °F 40.8 °F 30.1 in WNW 8.1 mph 11 mph 91% 0 in 0 W/m2
07:30 43.3 °F 40.6 °F 30.1 in WNW 4 mph 4 mph 90% 0 in 0 W/m2
07:35 43.3 °F 40.6 °F 30.1 in WSW 8.1 mph 8 mph 90% 0 in 0 W/m2
07:40 43.2 °F 40.5 °F 30.1 in West 6.9 mph 8 mph 90% 0 in 0 W/m2
07:45 43.2 °F 40.5 °F 30.1 in West 4 mph 4 mph 90% 0 in 0 W/m2
07:50 43.2 °F 40.5 °F 30.1 in WSW 4.9 mph 8 mph 90% 0 in 5 W/m2
07:55 43.2 °F 40.5 °F 30.1 in West 2 mph 3 mph 90% 0 in 5 W/m2
08:00 43.2 °F 40.6 °F 30.1 in WNW 2 mph 9 mph 91% 0 in 7 W/m2
08:05 43.3 °F 40.8 °F 30.1 in West 4 mph 8 mph 91% 0 in 9 W/m2
08:10 43.3 °F 40.8 °F 30.1 in WSW 2 mph 9 mph 91% 0 in 9 W/m2
08:15 43.5 °F 40.8 °F 30.1 in WNW 0.9 mph 4 mph 90% 0 in 12 W/m2
08:20 43.5 °F 40.8 °F 30.1 in South 0.9 mph 4 mph 90% 0 in 16 W/m2
08:26 43.5 °F 40.8 °F 30.1 in WSW 2 mph 8 mph 90% 0 in 16 W/m2
08:31 43.5 °F 40.8 °F 30.1 in SW 2 mph 3 mph 90% 0 in 19 W/m2
08:36 43.7 °F 41 °F 30.1 in SW 0.9 mph 5 mph 90% 0 in 25 W/m2
08:41 43.9 °F 41.2 °F 30.1 in West 0.9 mph 3 mph 90% 0 in 28 W/m2
08:46 43.9 °F 41.4 °F 30.1 in WSW 4 mph 6 mph 91% 0 in 28 W/m2
08:51 43.9 °F 41.4 °F 30.1 in WSW 0.9 mph 2 mph 91% 0 in 35 W/m2
08:56 43.9 °F 41.4 °F 30.1 in West 2 mph 8 mph 91% 0 in 37 W/m2
09:01 44.1 °F 41.5 °F 30.1 in West 2 mph 4 mph 91% 0 in 47 W/m2
09:06 44.1 °F 41.5 °F 30.1 in Calm   8 mph 91% 0 in 60 W/m2
09:11 44.1 °F 41.5 °F 30.1 in West 0.9 mph 6 mph 91% 0 in 62 W/m2
09:16 44.2 °F 41.5 °F 30.1 in WNW 0.9 mph 7 mph 90% 0 in 53 W/m2
09:21 44.2 °F 41.5 °F 30.1 in SW 4 mph 8 mph 90% 0 in 107 W/m2
09:26 44.4 °F 41.7 °F 30.1 in West 4 mph 6 mph 90% 0 in 77 W/m2
09:31 44.4 °F 41.7 °F 30.1 in West 2.9 mph 3 mph 90% 0 in 88 W/m2
09:36 44.6 °F 41.9 °F 30.1 in SSW 2 mph 4 mph 90% 0 in 67 W/m2
09:41 44.8 °F 42.1 °F 30.2 in West 4 mph 4 mph 90% 0 in 90 W/m2
09:46 44.8 °F 41.7 °F 30.2 in NW 2 mph 4 mph 89% 0 in 76 W/m2
09:51 45 °F 41.9 °F 30.2 in WNW 2 mph 8 mph 89% 0 in 63 W/m2
09:56 45 °F 41.9 °F 30.2 in NW 2 mph 2 mph 89% 0 in 62 W/m2
10:01 45 °F 41.9 °F 30.2 in West 4 mph 9 mph 89% 0 in 60 W/m2
10:06 45 °F 41.9 °F 30.2 in NW 2 mph 4 mph 89% 0 in 58 W/m2
10:12 45 °F 41.9 °F 30.2 in WNW 0.9 mph 3 mph 89% 0 in 63 W/m2
10:17 45.1 °F 42.1 °F 30.2 in NW 0.9 mph 4 mph 89% 0 in 91 W/m2
10:22 45.1 °F 42.1 °F 30.2 in West 4 mph 5 mph 89% 0 in 128 W/m2
10:27 45.3 °F 42.3 °F 30.2 in Calm   2 mph 89% 0 in 123 W/m2
10:32 45.5 °F 42.1 °F 30.2 in WNW 2.9 mph 10 mph 88% 0 in 88 W/m2
10:37 45.7 °F 42.3 °F 30.2 in West 6.9 mph 11 mph 88% 0 in 105 W/m2
10:42 45.7 °F 42.3 °F 30.2 in West 6.9 mph 7 mph 88% 0 in 104 W/m2
10:47 45.9 °F 42.4 °F 30.2 in SW 0.9 mph 11 mph 88% 0 in 111 W/m2
10:52 45.9 °F 42.3 °F 30.2 in WSW 4 mph 5 mph 87% 0 in 109 W/m2
10:57 46 °F 42.4 °F 30.2 in WNW 8.9 mph 11 mph 87% 0 in 111 W/m2
11:02 46 °F 42.4 °F 30.2 in WSW 2.9 mph 6 mph 87% 0 in 98 W/m2
11:07 46.2 °F 42.6 °F 30.2 in West 2 mph 6 mph 87% 0 in 93 W/m2
11:12 46.2 °F 42.3 °F 30.2 in West 2.9 mph 7 mph 86% 0 in 100 W/m2
11:17 46.6 °F 42.3 °F 30.2 in WNW 2 mph 7 mph 85% 0 in 104 W/m2
11:22 46.6 °F 42.3 °F 30.2 in WNW 2 mph 4 mph 85% 0 in 125 W/m2
11:27 46.8 °F 42.8 °F 30.2 in Calm   1 mph 86% 0 in 142 W/m2
11:32 46.8 °F 42.4 °F 30.2 in WNW 2 mph 6 mph 85% 0 in 109 W/m2
11:37 46.8 °F 42.4 °F 30.2 in WNW 2.9 mph 7 mph 85% 0 in 179 W/m2
11:42 46.9 °F 42.6 °F 30.2 in West 4 mph 8 mph 85% 0 in 213 W/m2
11:47 47.3 °F 42.8 °F 30.2 in WSW 4 mph 6 mph 84% 0 in 155 W/m2
11:52 47.5 °F 42.8 °F 30.2 in SW 2.9 mph 11 mph 84% 0 in 97 W/m2
11:57 47.5 °F 42.6 °F 30.2 in West 6.9 mph 10 mph 83% 0 in 220 W/m2
12:02 47.5 °F 42.6 °F 30.2 in WNW 2.9 mph 6 mph 83% 0 in 229 W/m2
12:08 47.7 °F 42.8 °F 30.2 in WSW 8.1 mph 11 mph 83% 0 in 107 W/m2
12:13 47.7 °F 42.4 °F 30.2 in WNW 4.9 mph 10 mph 82% 0 in 135 W/m2
12:18 47.8 °F 42.6 °F 30.2 in WNW 6.9 mph 11 mph 82% 0 in 455 W/m2
12:23 48 °F 42.4 °F 30.2 in WSW 4.9 mph 11 mph 81% 0 in 148 W/m2
12:28 48.2 °F 42.6 °F 30.2 in West 2.9 mph 10 mph 81% 0 in 186 W/m2
12:33 48.2 °F 42.6 °F 30.2 in WNW 2 mph 6 mph 81% 0 in 137 W/m2
12:38 48.4 °F 42.8 °F 30.2 in WSW 2 mph 9 mph 81% 0 in 272 W/m2
12:43 48.4 °F 43.2 °F 30.2 in WNW 10.1 mph 10 mph 82% 0 in 98 W/m2
12:48 48.4 °F 42.8 °F 30.2 in WSW 4.9 mph 7 mph 81% 0 in 120 W/m2
12:53 48.4 °F 43.2 °F 30.2 in WSW 8.1 mph 9 mph 82% 0 in 176 W/m2
12:58 48.4 °F 43.2 °F 30.2 in West 6 mph 8 mph 82% 0 in 91 W/m2
13:03 48.4 °F 42.8 °F 30.2 in West 4 mph 6 mph 81% 0 in 97 W/m2
13:08 48.4 °F 42.8 °F 30.2 in SW 2.9 mph 7 mph 81% 0 in 63 W/m2
13:13 48.4 °F 42.8 °F 30.2 in Calm   3 mph 81% 0 in 135 W/m2
13:18 48.6 °F 43 °F 30.2 in WNW 0.9 mph 2 mph 81% 0 in 158 W/m2
13:23 48.7 °F 43.2 °F 30.2 in NW 2 mph 4 mph 81% 0 in 172 W/m2
13:28 48.9 °F 43 °F 30.2 in WNW 6 mph 7 mph 80% 0 in 232 W/m2
13:33 49.3 °F 43 °F 30.2 in West 2.9 mph 4 mph 79% 0 in 223 W/m2
13:38 49.6 °F 43.3 °F 30.2 in WSW 2 mph 11 mph 79% 0 in 141 W/m2
13:43 49.6 °F 43.3 °F 30.2 in WNW 2 mph 4 mph 79% 0 in 91 W/m2
13:48 49.5 °F 42.8 °F 30.2 in WNW 4.9 mph 11 mph 78% 0 in 58 W/m2
13:53 49.5 °F 42.6 °F 30.2 in WSW 6 mph 7 mph 77% 0 in 56 W/m2
13:58 49.3 °F 42.4 °F 30.2 in WSW 4 mph 9 mph 77% 0 in 84 W/m2
14:03 49.3 °F 42.8 °F 30.2 in West 0.9 mph 7 mph 78% 0 in 67 W/m2
14:08 49.3 °F 42.8 °F 30.2 in WSW 2.9 mph 9 mph 78% 0 in 63 W/m2
14:13 49.3 °F 43 °F 30.2 in WSW 2.9 mph 3 mph 79% 0 in 74 W/m2
14:18 49.3 °F 43 °F 30.2 in WNW 2 mph 5 mph 79% 0 in 62 W/m2
14:23 49.3 °F 43 °F 30.2 in WNW 2 mph 2 mph 79% 0 in 86 W/m2
14:28 49.3 °F 43.3 °F 30.2 in WNW 2 mph 3 mph 80% 0 in 121 W/m2
14:33 49.5 °F 43.5 °F 30.2 in NW 2.9 mph 8 mph 80% 0 in 84 W/m2
14:38 49.5 °F 43.5 °F 30.2 in WSW 2 mph 6 mph 80% 0 in 144 W/m2
14:43 49.5 °F 43.5 °F 30.2 in West 2.9 mph 3 mph 80% 0 in 183 W/m2
14:48 49.5 °F 43.5 °F 30.2 in NW 2.9 mph 6 mph 80% 0 in 127 W/m2
14:53 49.6 °F 43.7 °F 30.2 in Calm   2 mph 80% 0 in 120 W/m2
14:58 49.6 °F 43.7 °F 30.2 in SW 0.9 mph 7 mph 80% 0 in 100 W/m2
15:03 49.6 °F 43.7 °F 30.2 in West 2 mph 2 mph 80% 0 in 70 W/m2
15:08 49.6 °F 43.7 °F 30.2 in SSW 0.9 mph 7 mph 80% 0 in 69 W/m2
15:13 49.6 °F 43.7 °F 30.2 in Calm   1 mph 80% 0 in 67 W/m2
15:18 49.6 °F 43.7 °F 30.2 in WNW 6.9 mph 7 mph 80% 0 in 77 W/m2
15:23 49.6 °F 43.7 °F 30.2 in WNW 0.9 mph 6 mph 80% 0 in 121 W/m2
15:28 49.6 °F 43.7 °F 30.2 in Calm   1 mph 80% 0 in 113 W/m2
15:33 49.6 °F 43.7 °F 30.2 in WSW 0.9 mph 2 mph 80% 0 in 83 W/m2
15:38 49.8 °F 43.9 °F 30.2 in WSW 0.9 mph 6 mph 80% 0 in 60 W/m2
15:43 49.8 °F 43.5 °F 30.2 in Calm     79% 0 in 84 W/m2
15:48 49.8 °F 43.5 °F 30.2 in West 2 mph 6 mph 79% 0 in 88 W/m2
15:53 49.8 °F 43.5 °F 30.2 in West 4 mph 4 mph 79% 0 in 76 W/m2
15:58 49.8 °F 43.5 °F 30.2 in West 2 mph 5 mph 79% 0 in 62 W/m2
16:03 49.8 °F 43.5 °F 30.2 in Calm   2 mph 79% 0 in 62 W/m2
16:08 49.8 °F 43.5 °F 30.2 in West 2.9 mph 6 mph 79% 0 in 62 W/m2
16:13 49.8 °F 43.5 °F 30.2 in SSW 2 mph 3 mph 79% 0 in 54 W/m2
16:18 49.8 °F 43.5 °F 30.2 in NNW 2 mph 4 mph 79% 0 in 42 W/m2
16:23 49.8 °F 43.9 °F 30.2 in Calm   3 mph 80% 0 in 39 W/m2
16:28 49.6 °F 43.7 °F 30.2 in Calm   4 mph 80% 0 in 40 W/m2
16:33 49.6 °F 43.7 °F 30.2 in SE 2 mph 2 mph 80% 0 in 53 W/m2
16:38 49.6 °F 43.7 °F 30.2 in WNW 2 mph 4 mph 80% 0 in 39 W/m2
16:43 49.6 °F 43.7 °F 30.2 in Calm   1 mph 80% 0 in 40 W/m2
16:48 49.6 °F 43.7 °F 30.2 in Calm   2 mph 80% 0 in 39 W/m2
16:53 49.6 °F 44.1 °F 30.2 in NNE 0.9 mph 2 mph 81% 0 in 28 W/m2
16:58 49.6 °F 43.7 °F 30.2 in West 0.9 mph 2 mph 80% 0 in 26 W/m2
17:03 49.5 °F 43.5 °F 30.2 in Calm   2 mph 80% 0 in 26 W/m2
17:08 49.5 °F 43.5 °F 30.2 in WNW 4 mph 7 mph 80% 0 in 23 W/m2
17:13 49.5 °F 43.5 °F 30.2 in Calm   1 mph 80% 0 in 25 W/m2
17:18 49.5 °F 43.5 °F 30.2 in Calm   6 mph 80% 0 in 25 W/m2
17:23 49.5 °F 43.5 °F 30.2 in ESE 0.9 mph 2 mph 80% 0 in 23 W/m2
17:28 49.5 °F 43.5 °F 30.2 in WNW 2 mph 6 mph 80% 0 in 19 W/m2
17:33 49.5 °F 43.5 °F 30.2 in West 2 mph 2 mph 80% 0 in 16 W/m2
17:38 49.3 °F 43.3 °F 30.2 in Calm   1 mph 80% 0 in 11 W/m2
17:43 49.3 °F 43.3 °F 30.2 in Calm     80% 0 in 7 W/m2
17:48 49.1 °F 43.5 °F 30.2 in ESE 0.9 mph 1 mph 81% 0 in 0 W/m2
17:53 48.9 °F 43.3 °F 30.2 in Calm     81% 0 in 0 W/m2
17:58 48.9 °F 43.7 °F 30.2 in Calm   1 mph 82% 0 in 0 W/m2
18:03 48.7 °F 43.5 °F 30.2 in Calm     82% 0 in 0 W/m2
18:08 48.7 °F 43.9 °F 30.2 in SW 2.9 mph 3 mph 83% 0 in 0 W/m2
18:13 48.7 °F 43.9 °F 30.2 in West 2 mph 4 mph 83% 0 in 0 W/m2
18:18 48.7 °F 43.5 °F 30.2 in Calm   3 mph 82% 0 in 0 W/m2
18:23 48.6 °F 43.7 °F 30.2 in Calm     83% 0 in 0 W/m2
18:28 48.4 °F 43.5 °F 30.2 in Calm   3 mph 83% 0 in 0 W/m2
18:33 47.8 °F 43 °F 30.2 in Calm     83% 0 in 0 W/m2
18:38 47.5 °F 42.8 °F 30.2 in SW 0.9 mph 2 mph 84% 0 in 0 W/m2
18:43 47.1 °F 42.8 °F 30.3 in Calm     85% 0 in 0 W/m2
18:48 46.9 °F 42.6 °F 30.3 in Calm     85% 0 in 0 W/m2
18:53 46.9 °F 43 °F 30.3 in Calm     86% 0 in 0 W/m2
18:58 46.8 °F 42.8 °F 30.3 in Calm     86% 0 in 0 W/m2
19:03 46.8 °F 42.8 °F 30.3 in Calm     86% 0 in 0 W/m2
19:09 46.6 °F 43 °F 30.3 in Calm     87% 0 in 0 W/m2
19:14 46.2 °F 42.6 °F 30.3 in Calm     87% 0 in 0 W/m2
19:19 46 °F 42.4 °F 30.3 in SW 0.9 mph 1 mph 87% 0 in 0 W/m2
19:24 45.9 °F 42.4 °F 30.3 in Calm   1 mph 88% 0 in 0 W/m2
19:29 45.7 °F 42.3 °F 30.3 in Calm     88% 0 in 0 W/m2
19:34 45.3 °F 41.9 °F 30.3 in Calm   1 mph 88% 0 in 0 W/m2
19:39 45 °F 41.5 °F 30.3 in Calm     88% 0 in 0 W/m2
19:44 44.8 °F 41.4 °F 30.3 in Calm     88% 0 in 0 W/m2
19:49 44.6 °F 41.5 °F 30.3 in Calm     89% 0 in 0 W/m2
19:54 44.2 °F 41.2 °F 30.3 in Calm     89% 0 in 0 W/m2
19:59 44.1 °F 41 °F 30.3 in Calm     89% 0 in 0 W/m2
20:04 43.9 °F 40.8 °F 30.3 in Calm     89% 0 in 0 W/m2
20:09 43.9 °F 41.2 °F 30.3 in Calm     90% 0 in 0 W/m2
20:14 43.9 °F 41.4 °F 30.3 in Calm     91% 0 in 0 W/m2
20:19 43.9 °F 41.4 °F 30.3 in Calm     91% 0 in 0 W/m2
20:24 44.1 °F 41.5 °F 30.3 in South 2 mph 2 mph 91% 0 in 0 W/m2
20:29 44.1 °F 41.5 °F 30.3 in Calm     91% 0 in 0 W/m2
20:34 44.1 °F 41.5 °F 30.3 in Calm     91% 0 in 0 W/m2
20:39 43.9 °F 41.4 °F 30.3 in Calm     91% 0 in 0 W/m2
20:44 43.7 °F 41.2 °F 30.3 in Calm     91% 0 in 0 W/m2
20:49 43.5 °F 41 °F 30.3 in Calm     91% 0 in 0 W/m2
20:54 43.3 °F 40.8 °F 30.3 in Calm     91% 0 in 0 W/m2
20:59 43.3 °F 40.8 °F 30.3 in Calm     91% 0 in 0 W/m2
21:04 43 °F 40.5 °F 30.3 in Calm     91% 0 in 0 W/m2
21:09 43 °F 40.5 °F 30.3 in Calm     91% 0 in 0 W/m2
21:15 42.6 °F 40.1 °F 30.3 in Calm   1 mph 91% 0 in 0 W/m2
21:20 42.6 °F 40.5 °F 30.3 in Calm     92% 0 in 0 W/m2
21:25 42.6 °F 40.5 °F 30.3 in Calm     92% 0 in 0 W/m2
21:30 42.4 °F 40.3 °F 30.3 in Calm     92% 0 in 0 W/m2
21:35 42.4 °F 40.3 °F 30.3 in Calm     92% 0 in 0 W/m2
21:40 42.4 °F 40.3 °F 30.3 in Calm     92% 0 in 0 W/m2
21:45 42.4 °F 40.3 °F 30.3 in Calm     92% 0 in 0 W/m2
21:50 42.3 °F 40.5 °F 30.3 in ESE 0.9 mph 2 mph 93% 0 in 0 W/m2
21:55 42.4 °F 40.6 °F 30.3 in Calm     93% 0 in 0 W/m2
22:00 42.4 °F 40.6 °F 30.3 in Calm     93% 0 in 0 W/m2
22:05 42.4 °F 40.6 °F 30.3 in Calm     93% 0 in 0 W/m2
22:10 42.4 °F 40.6 °F 30.3 in ESE 0.9 mph 1 mph 93% 0 in 0 W/m2
22:15 42.4 °F 40.6 °F 30.3 in Calm     93% 0 in 0 W/m2
22:20 42.4 °F 40.6 °F 30.3 in Calm   1 mph 93% 0 in 0 W/m2
22:25 42.4 °F 40.6 °F 30.3 in Calm     93% 0 in 0 W/m2
22:30 42.4 °F 40.6 °F 30.3 in Calm   1 mph 93% 0 in 0 W/m2
22:35 42.4 °F 40.6 °F 30.3 in Calm     93% 0 in 0 W/m2
22:41 42.4 °F 40.6 °F 30.3 in Calm     93% 0 in 0 W/m2
22:46 42.6 °F 40.8 °F 30.3 in Calm   2 mph 93% 0 in 0 W/m2
22:51 42.6 °F 41 °F 30.3 in Calm     94% 0 in 0 W/m2
22:56 42.6 °F 41 °F 30.3 in Calm     94% 0 in 0 W/m2
23:01 42.8 °F 41.2 °F 30.3 in Calm     94% 0 in 0 W/m2
23:06 42.8 °F 41.2 °F 30.3 in Calm     94% 0 in 0 W/m2
23:11 43 °F 41.4 °F 30.3 in Calm     94% 0 in 0 W/m2
23:16 43 °F 41.4 °F 30.3 in Calm     94% 0 in 0 W/m2
23:21 43 °F 41.4 °F 30.3 in Calm     94% 0 in 0 W/m2
23:26 43.2 °F 41.5 °F 30.3 in Calm     94% 0 in 0 W/m2
23:31 43.2 °F 41.5 °F 30.3 in Calm     94% 0 in 0 W/m2
23:36 43.2 °F 41.4 °F 30.3 in ESE 0.9 mph 2 mph 93% 0 in 0 W/m2
23:41 43.2 °F 41.4 °F 30.3 in Calm     93% 0 in 0 W/m2
23:46 43.3 °F 41.7 °F 30.3 in Calm     94% 0 in 0 W/m2
23:51 43.3 °F 41.5 °F 30.3 in East 2 mph 2 mph 93% 0 in 0 W/m2
23:56 43.5 °F 41.7 °F 30.3 in Calm   1 mph 93% 0 in 0 W/m2
Juneau County Weather
Compliments of Weather Underground - 4 mb